Time;durP1;ratioP1;P1;durP2;ratioP2;P2;SDS_P1;SDS_P2;PMS_P1;PMS_P2;Temp;Humidity;BMP_temperature;BMP_pressure;BME280_temperature;BME280_humidity;BME280_pressure;Samples;Min_cycle;Max_cycle;Signal;HPM_P1;HPM_P2
2021/10/27 00:02:16;;;;;;;31.65;20.33;;;;;;;;;;5070090;28;20110;-61
2021/10/27 00:04:42;;;;;;;37.60;19.88;;;;;;;;;;5075155;28;20045;-62
2021/10/27 00:07:08;;;;;;;37.85;19.08;;;;;;;;;;5065176;28;20045;-61
2021/10/27 00:09:35;;;;;;;29.48;18.05;;;;;;;;;;5068441;28;20079;-61
2021/10/27 00:12:02;;;;;;;33.88;20.10;;;;;;;;;;5070633;28;20045;-61
2021/10/27 00:14:28;;;;;;;31.52;18.73;;;;;;;;;;5078221;28;20131;-62
2021/10/27 00:16:54;;;;;;;29.10;14.95;;;;;;;;;;5063917;28;20072;-61
2021/10/27 00:19:20;;;;;;;36.00;19.98;;;;;;;;;;5064375;28;20052;-62
2021/10/27 00:21:47;;;;;;;34.92;18.88;;;;;;;;;;5064465;28;20054;-61
2021/10/27 00:24:13;;;;;;;38.75;18.73;;;;;;;;;;5064062;28;20045;-62
2021/10/27 00:26:39;;;;;;;33.88;19.65;;;;;;;;;;5063699;28;20041;-62
2021/10/27 00:29:05;;;;;;;33.80;19.70;;;;;;;;;;5064729;28;20052;-62
2021/10/27 00:31:31;;;;;;;33.63;19.95;;;;;;;;;;5063999;28;20049;-61
2021/10/27 00:33:57;;;;;;;39.05;19.45;;;;;;;;;;5063670;28;20061;-62
2021/10/27 00:36:23;;;;;;;36.10;19.33;;;;;;;;;;5063326;28;20097;-62
2021/10/27 00:38:49;;;;;;;31.35;20.73;;;;;;;;;;5064094;28;20052;-61
2021/10/27 00:41:15;;;;;;;34.42;20.35;;;;;;;;;;5065724;28;20078;-61
2021/10/27 00:43:42;;;;;;;38.65;20.88;;;;;;;;;;5063717;28;20041;-62
2021/10/27 00:46:17;;;;;;;35.05;20.48;;;;;;;;;;5064049;28;20052;-62
2021/10/27 00:48:43;;;;;;;31.55;18.60;;;;;;;;;;5064236;28;20519;-62
2021/10/27 00:51:09;;;;;;;36.50;20.33;;;;;;;;;;5067602;28;20084;-62
2021/10/27 00:53:36;;;;;;;37.65;19.45;;;;;;;;;;5064024;28;20045;-61
2021/10/27 00:56:02;;;;;;;38.58;20.17;;;;;;;;;;5066333;28;20044;-62
2021/10/27 00:58:28;;;;;;;40.25;20.02;;;;;;;;;;5070304;28;20481;-61
2021/10/27 01:00:54;;;;;;;38.53;20.27;;;;;;;;;;5072325;28;20041;-62
2021/10/27 01:03:20;;;;;;;31.77;18.45;;;;;;;;;;5068445;28;20497;-61
2021/10/27 01:05:46;;;;;;;31.42;20.58;;;;;;;;;;5067273;28;20037;-61
2021/10/27 01:08:13;;;;;;;38.92;18.40;;;;;;;;;;5069490;28;20507;-62
2021/10/27 01:10:42;;;;;;;46.83;19.27;;;;;;;;;;5067246;28;20048;-62
2021/10/27 01:13:08;;;;;;;44.67;21.67;;;;;;;;;;5067599;28;20037;-62
2021/10/27 01:15:41;;;;;;;48.60;19.67;;;;;;;;;;5065949;28;20433;-62
2021/10/27 01:18:07;;;;;;;43.17;18.38;;;;;;;;;;5076216;28;20041;-61
2021/10/27 01:20:34;;;;;;;43.95;16.80;;;;;;;;;;5073193;28;20037;-62
2021/10/27 01:23:00;;;;;;;33.45;18.58;;;;;;;;;;5069657;28;20055;-61
2021/10/27 01:25:26;;;;;;;38.00;16.45;;;;;;;;;;5066942;28;20045;-61
2021/10/27 01:27:53;;;;;;;30.40;15.77;;;;;;;;;;5067283;28;20525;-62
2021/10/27 01:30:22;;;;;;;37.10;16.92;;;;;;;;;;5066954;28;20064;-62
2021/10/27 01:32:49;;;;;;;29.73;15.32;;;;;;;;;;5067563;28;20045;-61
2021/10/27 01:35:15;;;;;;;38.85;17.13;;;;;;;;;;5073984;28;20048;-61
2021/10/27 01:37:42;;;;;;;32.03;15.90;;;;;;;;;;5091039;28;20461;-61
2021/10/27 01:40:11;;;;;;;33.05;15.90;;;;;;;;;;5076580;28;20155;-61
2021/10/27 01:42:37;;;;;;;36.10;17.83;;;;;;;;;;5067266;28;20055;-62
2021/10/27 01:45:04;;;;;;;34.63;13.98;;;;;;;;;;5067513;28;20045;-62
2021/10/27 01:47:30;;;;;;;30.92;15.05;;;;;;;;;;5076110;28;20120;-61
2021/10/27 01:49:56;;;;;;;35.35;14.10;;;;;;;;;;5079513;28;20048;-61
2021/10/27 01:52:22;;;;;;;36.78;14.18;;;;;;;;;;5076570;28;20032;-62
2021/10/27 01:54:48;;;;;;;30.80;13.30;;;;;;;;;;5077142;28;20464;-61
2021/10/27 01:57:15;;;;;;;34.47;13.25;;;;;;;;;;5070681;28;20049;-61
2021/10/27 01:59:41;;;;;;;26.00;12.25;;;;;;;;;;5067019;28;20444;-61
2021/10/27 02:02:07;;;;;;;24.13;13.15;;;;;;;;;;5066676;28;20200;-62
2021/10/27 02:04:33;;;;;;;25.38;13.85;;;;;;;;;;5073623;28;20041;-62
2021/10/27 02:07:00;;;;;;;29.90;13.98;;;;;;;;;;5075462;28;20056;-62
2021/10/27 02:09:26;;;;;;;28.25;13.45;;;;;;;;;;5065343;28;20527;-62
2021/10/27 02:11:53;;;;;;;27.65;12.70;;;;;;;;;;5066458;28;20051;-61
2021/10/27 02:14:19;;;;;;;30.17;12.60;;;;;;;;;;5066701;28;20128;-61
2021/10/27 02:16:45;;;;;;;30.35;12.15;;;;;;;;;;5067485;28;20500;-62
2021/10/27 02:19:11;;;;;;;28.83;12.25;;;;;;;;;;5070246;28;20127;-61
2021/10/27 02:21:38;;;;;;;24.42;11.65;;;;;;;;;;5066086;28;20068;-62
2021/10/27 02:24:04;;;;;;;37.85;12.77;;;;;;;;;;5065782;28;20110;-61
2021/10/27 02:26:30;;;;;;;27.35;12.80;;;;;;;;;;5066078;28;20041;-62
2021/10/27 02:28:56;;;;;;;25.40;12.50;;;;;;;;;;5066248;28;20045;-61
2021/10/27 02:31:22;;;;;;;24.63;12.38;;;;;;;;;;5065819;28;20051;-61
2021/10/27 02:33:49;;;;;;;33.15;13.20;;;;;;;;;;5065702;28;20135;-61
2021/10/27 02:36:15;;;;;;;30.92;13.25;;;;;;;;;;5079025;28;20135;-62
2021/10/27 02:38:42;;;;;;;32.03;12.55;;;;;;;;;;5072929;28;20045;-62
2021/10/27 02:41:09;;;;;;;32.35;11.98;;;;;;;;;;5065646;28;20404;-61
2021/10/27 02:43:35;;;;;;;32.58;12.25;;;;;;;;;;5066029;28;20071;-61
2021/10/27 02:46:01;;;;;;;32.15;12.20;;;;;;;;;;5069522;28;20167;-62
2021/10/27 02:48:27;;;;;;;27.27;11.85;;;;;;;;;;5080309;28;20037;-62
2021/10/27 02:50:54;;;;;;;23.17;12.32;;;;;;;;;;5074908;28;20041;-62
2021/10/27 02:53:20;;;;;;;30.40;12.75;;;;;;;;;;5069252;28;20056;-61
2021/10/27 02:55:46;;;;;;;25.73;11.20;;;;;;;;;;5070576;28;20075;-61
2021/10/27 02:58:12;;;;;;;29.67;11.48;;;;;;;;;;5064403;28;20533;-61
2021/10/27 03:00:38;;;;;;;33.53;12.60;;;;;;;;;;5065092;28;20512;-62
2021/10/27 03:03:04;;;;;;;29.13;11.65;;;;;;;;;;5065760;28;20087;-62
2021/10/27 03:05:31;;;;;;;33.70;12.15;;;;;;;;;;5065370;28;20040;-61
2021/10/27 03:07:57;;;;;;;28.05;10.63;;;;;;;;;;5065334;28;20087;-62
2021/10/27 03:10:24;;;;;;;27.38;11.00;;;;;;;;;;5065332;28;20389;-62
2021/10/27 03:12:50;;;;;;;23.33;10.07;;;;;;;;;;5065075;28;20105;-61
2021/10/27 03:15:16;;;;;;;25.58;11.88;;;;;;;;;;5066444;28;20119;-62
2021/10/27 03:17:42;;;;;;;27.58;11.60;;;;;;;;;;5079729;28;20044;-61
2021/10/27 03:20:08;;;;;;;19.00;9.20;;;;;;;;;;5073204;28;20041;-62
2021/10/27 03:22:35;;;;;;;30.27;9.23;;;;;;;;;;5064120;28;20175;-61
2021/10/27 03:25:01;;;;;;;28.30;9.48;;;;;;;;;;5067157;28;20041;-61
2021/10/27 03:27:27;;;;;;;16.00;7.95;;;;;;;;;;5064797;28;20041;-61
2021/10/27 03:29:53;;;;;;;21.13;8.13;;;;;;;;;;5064754;28;20041;-61
2021/10/27 03:32:19;;;;;;;25.20;8.43;;;;;;;;;;5065020;28;20871;-61
2021/10/27 03:34:48;;;;;;;28.52;8.65;;;;;;;;;;5066121;28;20075;-62
2021/10/27 03:37:14;;;;;;;18.33;7.57;;;;;;;;;;5064920;28;20561;-62
2021/10/27 03:39:40;;;;;;;21.98;7.63;;;;;;;;;;5063852;28;20053;-61
2021/10/27 03:42:07;;;;;;;15.73;6.68;;;;;;;;;;5084542;28;20064;-62
2021/10/27 03:44:33;;;;;;;26.67;7.43;;;;;;;;;;5070084;28;20487;-62
2021/10/27 03:46:59;;;;;;;23.10;6.03;;;;;;;;;;5065794;28;20064;-61
2021/10/27 03:49:26;;;;;;;19.27;6.53;;;;;;;;;;5064739;28;20060;-62
2021/10/27 03:51:52;;;;;;;21.65;6.22;;;;;;;;;;5063263;28;20044;-61
2021/10/27 03:54:18;;;;;;;22.40;5.55;;;;;;;;;;5073777;28;20078;-61
2021/10/27 03:56:44;;;;;;;13.75;5.25;;;;;;;;;;5068120;28;20160;-62
2021/10/27 03:59:11;;;;;;;9.32;3.58;;;;;;;;;;5063949;28;20041;-62
2021/10/27 04:01:37;;;;;;;20.98;5.32;;;;;;;;;;5063803;28;20083;-61
2021/10/27 04:04:03;;;;;;;15.45;3.50;;;;;;;;;;5064356;28;20037;-62
2021/10/27 04:06:29;;;;;;;20.00;4.05;;;;;;;;;;5063845;28;20412;-62
2021/10/27 04:08:55;;;;;;;14.85;4.45;;;;;;;;;;5063631;28;20069;-61
2021/10/27 04:11:22;;;;;;;19.50;4.93;;;;;;;;;;5064586;28;20104;-62
2021/10/27 04:13:48;;;;;;;21.00;3.25;;;;;;;;;;5065370;28;20531;-62
2021/10/27 04:16:14;;;;;;;18.63;4.30;;;;;;;;;;5075476;28;20064;-61
2021/10/27 04:18:40;;;;;;;16.05;3.72;;;;;;;;;;5065725;28;20036;-62
2021/10/27 04:21:06;;;;;;;20.08;3.95;;;;;;;;;;5063949;28;20489;-61
2021/10/27 04:23:32;;;;;;;16.73;4.15;;;;;;;;;;5064048;28;20063;-61
2021/10/27 04:25:58;;;;;;;16.23;3.90;;;;;;;;;;5063403;28;20045;-61
2021/10/27 04:28:24;;;;;;;24.30;4.25;;;;;;;;;;5063160;28;20087;-62
2021/10/27 04:30:51;;;;;;;18.48;3.83;;;;;;;;;;5067931;28;20051;-61
2021/10/27 04:33:21;;;;;;;15.80;3.88;;;;;;;;;;5064056;28;20131;-62
2021/10/27 04:35:48;;;;;;;19.55;3.20;;;;;;;;;;5076131;28;20072;-61
2021/10/27 04:38:14;;;;;;;16.33;3.47;;;;;;;;;;5063626;28;20103;-61
2021/10/27 04:40:42;;;;;;;22.80;4.43;;;;;;;;;;5068949;28;20075;-62
2021/10/27 04:43:08;;;;;;;18.15;3.53;;;;;;;;;;5063538;28;20048;-61
2021/10/27 04:45:35;;;;;;;16.63;4.57;;;;;;;;;;5063854;28;20570;-61
2021/10/27 04:48:01;;;;;;;17.50;4.10;;;;;;;;;;5077732;28;20513;-61
2021/10/27 04:50:27;;;;;;;18.90;4.22;;;;;;;;;;5064958;28;20102;-61
2021/10/27 04:52:53;;;;;;;14.57;3.50;;;;;;;;;;5075136;28;20041;-61
2021/10/27 04:55:19;;;;;;;15.27;4.50;;;;;;;;;;5065017;28;20128;-61
2021/10/27 04:57:46;;;;;;;26.08;3.58;;;;;;;;;;5063536;28;20041;-61
2021/10/27 05:00:12;;;;;;;24.90;4.57;;;;;;;;;;5063901;28;20048;-62
2021/10/27 05:02:38;;;;;;;18.17;3.92;;;;;;;;;;5063872;28;20124;-61
2021/10/27 05:05:06;;;;;;;16.65;3.20;;;;;;;;;;5071415;28;20052;-61
2021/10/27 05:07:32;;;;;;;15.00;3.75;;;;;;;;;;5069372;28;20052;-61
2021/10/27 05:09:58;;;;;;;18.98;3.97;;;;;;;;;;5063135;28;20068;-62
2021/10/27 05:12:25;;;;;;;25.45;4.10;;;;;;;;;;5076524;28;20037;-61
2021/10/27 05:14:51;;;;;;;17.90;4.13;;;;;;;;;;5063869;28;20102;-62
2021/10/27 05:17:18;;;;;;;10.23;3.80;;;;;;;;;;5071356;28;20055;-61
2021/10/27 05:19:45;;;;;;;17.50;3.95;;;;;;;;;;5063006;28;20104;-62
2021/10/27 05:22:12;;;;;;;11.85;3.67;;;;;;;;;;5063703;28;20049;-62
2021/10/27 05:24:38;;;;;;;17.80;4.17;;;;;;;;;;5075513;28;20513;-62
2021/10/27 05:27:05;;;;;;;17.38;4.45;;;;;;;;;;5063605;28;20302;-61
2021/10/27 05:29:31;;;;;;;26.40;4.28;;;;;;;;;;5075634;28;20049;-61
2021/10/27 05:31:57;;;;;;;25.17;4.72;;;;;;;;;;5063039;28;20068;-62
2021/10/27 05:34:23;;;;;;;24.35;4.43;;;;;;;;;;5062862;28;20053;-62
2021/10/27 05:36:50;;;;;;;13.18;2.97;;;;;;;;;;5071546;28;20053;-61
2021/10/27 05:39:17;;;;;;;16.58;3.58;;;;;;;;;;5076147;28;20033;-61
2021/10/27 05:41:48;;;;;;;14.93;3.97;;;;;;;;;;5066807;28;20037;-61
2021/10/27 05:44:14;;;;;;;21.70;4.65;;;;;;;;;;5075367;28;20048;-61
2021/10/27 05:46:42;;;;;;;22.70;4.22;;;;;;;;;;5071040;28;20045;-61
2021/10/27 05:49:17;;;;;;;24.25;4.88;;;;;;;;;;5077019;28;20045;-61
2021/10/27 05:51:50;;;;;;;26.63;4.07;;;;;;;;;;5079753;28;20048;-61
2021/10/27 05:57:01;;;;;;;17.25;3.35;;;;;;;;;;5066752;28;20045;-61
2021/10/27 05:59:27;;;;;;;23.98;4.40;;;;;;;;;;5066743;28;20049;-62
2021/10/27 06:01:53;;;;;;;22.60;4.07;;;;;;;;;;5069086;28;20115;-62
2021/10/27 06:04:19;;;;;;;21.55;4.53;;;;;;;;;;5078590;28;20104;-61
2021/10/27 06:06:46;;;;;;;18.15;4.47;;;;;;;;;;5081050;28;20033;-62
2021/10/27 06:09:13;;;;;;;16.40;5.35;;;;;;;;;;5066341;28;20040;-62
2021/10/27 06:11:39;;;;;;;27.35;5.32;;;;;;;;;;5071908;28;20052;-62
2021/10/27 06:14:05;;;;;;;24.67;5.30;;;;;;;;;;5071145;28;20045;-62
2021/10/27 06:16:32;;;;;;;23.63;5.40;;;;;;;;;;5066293;28;20053;-62
2021/10/27 06:18:58;;;;;;;19.90;4.88;;;;;;;;;;5066679;28;20083;-61
2021/10/27 06:21:24;;;;;;;16.92;4.35;;;;;;;;;;5069516;28;20048;-61
2021/10/27 06:23:51;;;;;;;28.70;5.13;;;;;;;;;;5067566;28;20037;-61
2021/10/27 06:26:22;;;;;;;22.77;5.17;;;;;;;;;;5070965;28;20393;-62
2021/10/27 06:29:09;;;;;;;16.58;5.03;;;;;;;;;;5066270;28;20086;-62
2021/10/27 06:31:38;;;;;;;27.30;5.43;;;;;;;;;;5071535;28;20049;-62
2021/10/27 06:34:31;;;;;;;13.10;4.13;;;;;;;;;;5065506;28;20045;-61
2021/10/27 06:47:19;;;;;;;25.20;5.97;;;;;;;;;;5065913;28;20056;-62
2021/10/27 06:49:46;;;;;;;20.52;5.28;;;;;;;;;;5069960;28;20037;-61
2021/10/27 06:52:12;;;;;;;28.83;6.35;;;;;;;;;;5066839;28;20056;-62
2021/10/27 06:54:38;;;;;;;23.42;7.25;;;;;;;;;;5065017;28;20051;-61
2021/10/27 06:57:04;;;;;;;24.17;8.27;;;;;;;;;;5077098;28;20033;-62
2021/10/27 07:15:08;;;;;;;19.45;6.50;;;;;;;;;;5074868;28;20154;-61
2021/10/27 07:17:34;;;;;;;22.45;7.88;;;;;;;;;;5068005;28;20070;-62
2021/10/27 07:20:01;;;;;;;19.85;7.47;;;;;;;;;;5079824;28;20037;-62
2021/10/27 07:22:27;;;;;;;22.88;6.95;;;;;;;;;;5069220;28;20048;-62
2021/10/27 07:24:53;;;;;;;14.95;6.53;;;;;;;;;;5088248;28;20041;-62
2021/10/27 07:27:20;;;;;;;18.63;7.53;;;;;;;;;;5074132;28;20098;-62
2021/10/27 07:29:46;;;;;;;19.05;6.47;;;;;;;;;;5082907;28;20044;-62
2021/10/27 07:32:14;;;;;;;19.08;6.60;;;;;;;;;;5070806;28;20040;-62
2021/10/27 07:42:54;;;;;;;28.77;8.15;;;;;;;;;;5039486;28;20042;-62
2021/10/27 07:45:25;;;;;;;22.25;8.35;;;;;;;;;;5042924;28;20755;-62
2021/10/27 07:47:51;;;;;;;22.08;8.25;;;;;;;;;;5034408;28;20056;-77
2021/10/27 07:50:18;;;;;;;16.75;7.78;;;;;;;;;;5023094;28;20124;-77
2021/10/27 07:52:44;;;;;;;23.55;9.20;;;;;;;;;;5032175;28;20552;-63
2021/10/27 07:55:11;;;;;;;19.65;9.50;;;;;;;;;;5040376;28;20045;-62
2021/10/27 07:57:37;;;;;;;22.53;9.60;;;;;;;;;;5023575;28;20410;-63
2021/10/27 08:00:05;;;;;;;14.88;8.73;;;;;;;;;;5036249;28;20041;-62
2021/10/27 08:02:31;;;;;;;18.77;9.13;;;;;;;;;;5034305;28;20041;-63
2021/10/27 08:04:57;;;;;;;31.60;10.75;;;;;;;;;;5036626;28;20046;-63
2021/10/27 08:07:23;;;;;;;19.27;9.15;;;;;;;;;;5041983;28;20050;-62
2021/10/27 08:09:49;;;;;;;27.65;12.38;;;;;;;;;;5031316;28;20041;-62
2021/10/27 08:12:15;;;;;;;30.50;10.38;;;;;;;;;;5038031;28;20071;-63
2021/10/27 08:14:42;;;;;;;19.17;10.48;;;;;;;;;;5069537;28;20057;-63
2021/10/27 08:17:08;;;;;;;17.60;9.55;;;;;;;;;;5092539;28;20048;-63
2021/10/27 08:19:34;;;;;;;21.80;9.80;;;;;;;;;;5078657;28;20048;-62
2021/10/27 08:22:05;;;;;;;23.25;10.45;;;;;;;;;;5078378;28;20036;-63
2021/10/27 08:24:31;;;;;;;25.38;9.98;;;;;;;;;;5077426;28;20048;-63
2021/10/27 08:27:06;;;;;;;20.80;10.60;;;;;;;;;;5077667;28;20075;-63
2021/10/27 08:29:37;;;;;;;22.40;12.35;;;;;;;;;;5081604;28;20059;-62
2021/10/27 08:32:14;;;;;;;21.05;11.15;;;;;;;;;;5071656;28;20048;-63
2021/10/27 08:34:46;;;;;;;20.05;10.32;;;;;;;;;;5071882;28;20104;-62
2021/10/27 08:37:12;;;;;;;27.63;13.55;;;;;;;;;;5073108;28;20052;-62
2021/10/27 08:39:39;;;;;;;20.30;12.85;;;;;;;;;;5076818;28;20090;-62
2021/10/27 08:42:06;;;;;;;20.95;13.05;;;;;;;;;;5072251;28;20045;-63
2021/10/27 08:44:32;;;;;;;24.20;14.47;;;;;;;;;;5082858;28;20051;-63
2021/10/27 08:47:00;;;;;;;27.58;13.98;;;;;;;;;;5082561;28;20041;-61
2021/10/27 08:49:27;;;;;;;21.15;13.77;;;;;;;;;;5075331;28;20037;-61
2021/10/27 08:51:56;;;;;;;27.10;12.98;;;;;;;;;;5075475;28;20041;-63
2021/10/27 08:54:22;;;;;;;19.45;11.32;;;;;;;;;;5071896;28;20064;-63
2021/10/27 08:56:49;;;;;;;21.65;12.65;;;;;;;;;;5069814;28;20082;-61
2021/10/27 08:59:37;;;;;;;19.77;10.90;;;;;;;;;;5072964;28;20496;-62
2021/10/27 09:02:21;;;;;;;21.48;11.48;;;;;;;;;;5069251;28;20059;-62
2021/10/27 09:40:27;;;;;;;15.05;7.78;;;;;;;;;;5071901;28;20052;-61
2021/10/27 09:43:34;;;;;;;17.40;7.28;;;;;;;;;;5074680;28;20051;-69
2021/10/27 10:05:10;;;;;;;13.95;6.75;;;;;;;;;;5084083;28;20099;-64
2021/10/27 10:07:37;;;;;;;17.38;7.57;;;;;;;;;;5083596;28;20048;-64
2021/10/27 10:10:04;;;;;;;14.25;6.57;;;;;;;;;;5071524;28;20163;-62
2021/10/27 10:12:37;;;;;;;15.90;6.57;;;;;;;;;;5076595;28;20100;-78
2021/10/27 10:15:03;;;;;;;12.55;5.93;;;;;;;;;;5079853;28;20311;-74
2021/10/27 10:17:30;;;;;;;16.40;5.63;;;;;;;;;;5081811;28;20090;-68
2021/10/27 10:19:56;;;;;;;9.45;4.88;;;;;;;;;;5080186;28;20071;-82
2021/10/27 10:22:26;;;;;;;11.50;5.00;;;;;;;;;;5077429;28;20629;-62
2021/10/27 10:24:53;;;;;;;13.18;4.93;;;;;;;;;;5081308;28;20435;-66
2021/10/27 10:27:35;;;;;;;14.05;4.85;;;;;;;;;;5083571;28;20049;-76
2021/10/27 10:30:04;;;;;;;8.52;3.80;;;;;;;;;;5076710;28;20048;-84
2021/10/27 10:32:32;;;;;;;9.82;3.40;;;;;;;;;;5073461;28;20049;-83
2021/10/27 10:35:01;;;;;;;12.13;4.50;;;;;;;;;;5075170;28;20060;-62
2021/10/27 10:37:29;;;;;;;10.43;3.80;;;;;;;;;;5068157;28;20052;-61
2021/10/27 10:39:56;;;;;;;9.77;3.55;;;;;;;;;;5066849;28;20120;-61
2021/10/27 10:42:53;;;;;;;10.65;3.42;;;;;;;;;;5073518;28;20053;-62
2021/10/27 10:45:32;;;;;;;11.23;3.50;;;;;;;;;;5075778;28;20113;-62
2021/10/27 10:57:02;;;;;;;14.23;4.22;;;;;;;;;;5070181;28;20057;-63
2021/10/27 11:00:19;;;;;;;8.48;3.17;;;;;;;;;;5066869;28;20086;-63
2021/10/27 11:22:53;;;;;;;10.75;3.65;;;;;;;;;;5072626;28;20083;-67
2021/10/27 11:39:33;;;;;;;8.70;3.42;;;;;;;;;;5069761;28;20037;-65
2021/10/27 11:42:11;;;;;;;9.15;3.03;;;;;;;;;;5072361;28;20084;-69
2021/10/27 11:44:57;;;;;;;12.00;3.80;;;;;;;;;;5070701;28;20709;-63
2021/10/27 11:47:36;;;;;;;6.22;2.92;;;;;;;;;;5077556;28;20056;-66
2021/10/27 11:50:02;;;;;;;11.73;2.58;;;;;;;;;;5087189;28;20060;-64
2021/10/27 11:52:33;;;;;;;10.50;2.38;;;;;;;;;;5085938;28;20044;-62
2021/10/27 11:54:59;;;;;;;8.25;2.95;;;;;;;;;;5087217;28;20058;-65
2021/10/27 11:57:29;;;;;;;14.18;2.58;;;;;;;;;;5072149;28;20033;-65
2021/10/27 11:59:55;;;;;;;9.30;3.13;;;;;;;;;;5070409;28;20044;-64
2021/10/27 12:02:22;;;;;;;9.90;2.50;;;;;;;;;;5071414;28;20145;-66
2021/10/27 12:04:48;;;;;;;10.88;2.75;;;;;;;;;;5075721;28;20507;-67
2021/10/27 12:07:32;;;;;;;11.98;2.95;;;;;;;;;;5075988;28;22110;-63
2021/10/27 12:10:28;;;;;;;8.57;2.63;;;;;;;;;;5072512;28;20048;-63
2021/10/27 12:13:02;;;;;;;8.85;3.42;;;;;;;;;;5068948;28;20057;-73
2021/10/27 12:16:17;;;;;;;5.78;2.15;;;;;;;;;;5076253;28;20564;-62
2021/10/27 12:18:27;;;;;;;6.70;2.05;;;;;;;;;;5073220;28;20048;-63
2021/10/27 12:20:55;;;;;;;5.20;2.10;;;;;;;;;;5072312;28;20112;-66
2021/10/27 12:23:21;;;;;;;6.63;2.03;;;;;;;;;;5081987;28;20270;-68
2021/10/27 12:25:48;;;;;;;10.65;2.33;;;;;;;;;;5072283;28;20068;-70
2021/10/27 12:28:32;;;;;;;11.85;2.80;;;;;;;;;;5076895;28;20037;-69
2021/10/27 12:31:12;;;;;;;9.80;2.42;;;;;;;;;;5083829;28;20108;-73
2021/10/27 12:33:42;;;;;;;12.05;2.30;;;;;;;;;;5071513;28;20120;-74
2021/10/27 12:36:28;;;;;;;8.57;2.22;;;;;;;;;;5074163;28;20044;-72
2021/10/27 12:39:33;;;;;;;7.55;2.15;;;;;;;;;;5078836;28;20543;-72
2021/10/27 12:42:02;;;;;;;10.98;2.78;;;;;;;;;;5063566;28;20049;-72
2021/10/27 12:44:28;;;;;;;8.55;2.10;;;;;;;;;;5072492;28;20056;-74
2021/10/27 12:47:13;;;;;;;11.02;2.10;;;;;;;;;;5077070;28;20040;-70
2021/10/27 12:49:44;;;;;;;12.95;2.20;;;;;;;;;;5072910;28;20068;-73
2021/10/27 12:52:27;;;;;;;5.35;1.90;;;;;;;;;;5079951;28;20247;-62
2021/10/27 12:55:09;;;;;;;11.45;2.25;;;;;;;;;;5078986;28;20045;-63
2021/10/27 12:57:55;;;;;;;6.32;2.13;;;;;;;;;;5076326;28;20118;-64
2021/10/27 13:00:34;;;;;;;6.88;1.80;;;;;;;;;;5073373;28;20157;-63
2021/10/27 13:05:48;;;;;;;7.28;2.15;;;;;;;;;;5074284;28;20072;-62
2021/10/27 13:19:14;;;;;;;8.98;1.85;;;;;;;;;;5080357;28;20080;-62
2021/10/27 13:21:49;;;;;;;8.35;2.20;;;;;;;;;;5083798;28;20049;-61
2021/10/27 13:32:17;;;;;;;8.98;2.47;;;;;;;;;;5080217;28;20052;-67
2021/10/27 13:34:43;;;;;;;14.73;3.13;;;;;;;;;;5079978;28;20060;-61
2021/10/27 13:37:09;;;;;;;9.65;3.50;;;;;;;;;;5076869;28;20053;-64
2021/10/27 13:39:36;;;;;;;7.85;2.50;;;;;;;;;;5075793;28;20048;-62
2021/10/27 13:42:09;;;;;;;26.95;4.25;;;;;;;;;;5081453;28;20227;-64
2021/10/27 13:44:43;;;;;;;9.05;2.60;;;;;;;;;;5070673;28;20060;-64
2021/10/27 13:47:47;;;;;;;6.18;2.92;;;;;;;;;;5073749;28;20110;-67
2021/10/27 14:06:31;;;;;;;6.82;3.42;;;;;;;;;;5082238;28;20140;-66
2021/10/27 14:09:06;;;;;;;9.00;2.95;;;;;;;;;;5084440;28;20052;-61
2021/10/27 14:11:43;;;;;;;6.55;2.40;;;;;;;;;;5080484;28;20604;-62
2021/10/27 14:14:15;;;;;;;7.32;2.67;;;;;;;;;;5076230;28;20044;-62
2021/10/27 14:22:41;;;;;;;9.93;3.47;;;;;;;;;;5080496;28;20487;-68
2021/10/27 15:20:33;;;;;;;10.48;2.40;;;;;;;;;;5073154;28;20342;-62
2021/10/27 15:28:25;;;;;;;7.15;2.38;;;;;;;;;;5066730;28;20049;-62
2021/10/27 15:52:24;;;;;;;9.35;2.65;;;;;;;;;;5072445;28;20055;-62
2021/10/27 15:54:50;;;;;;;10.30;2.97;;;;;;;;;;5075289;28;20051;-61
2021/10/27 15:57:17;;;;;;;5.38;2.40;;;;;;;;;;5072532;28;20151;-62
2021/10/27 15:59:44;;;;;;;7.53;2.42;;;;;;;;;;5073314;28;20044;-62
2021/10/27 16:02:11;;;;;;;4.47;2.65;;;;;;;;;;5078639;28;20048;-62
2021/10/27 16:04:38;;;;;;;5.00;2.42;;;;;;;;;;5073528;28;20116;-61
2021/10/27 16:07:06;;;;;;;7.65;2.65;;;;;;;;;;5080887;28;20044;-62
2021/10/27 16:09:40;;;;;;;6.95;2.70;;;;;;;;;;5074924;28;20044;-62
2021/10/27 16:12:07;;;;;;;5.22;2.60;;;;;;;;;;5071455;28;20036;-62
2021/10/27 16:14:34;;;;;;;6.83;2.60;;;;;;;;;;5075366;28;20049;-61
2021/10/27 16:17:00;;;;;;;7.57;2.63;;;;;;;;;;5076203;28;20068;-62
2021/10/27 16:19:26;;;;;;;8.10;3.17;;;;;;;;;;5067301;28;20048;-62
2021/10/27 16:21:52;;;;;;;12.95;3.33;;;;;;;;;;5075451;28;20132;-61
2021/10/27 16:24:19;;;;;;;8.98;3.20;;;;;;;;;;5081898;28;20072;-62
2021/10/27 16:26:46;;;;;;;10.90;3.15;;;;;;;;;;5078521;28;20041;-61
2021/10/27 16:29:12;;;;;;;7.72;3.42;;;;;;;;;;5084689;28;20071;-61
2021/10/27 16:31:38;;;;;;;8.88;3.10;;;;;;;;;;5074160;28;20063;-61
2021/10/27 16:34:08;;;;;;;6.45;2.95;;;;;;;;;;5082613;28;20083;-61
2021/10/27 16:36:34;;;;;;;7.00;2.78;;;;;;;;;;5071940;28;20051;-61
2021/10/27 16:39:01;;;;;;;6.90;3.00;;;;;;;;;;5071844;28;20041;-61
2021/10/27 16:41:27;;;;;;;6.53;2.88;;;;;;;;;;5074828;28;20104;-61
2021/10/27 16:43:53;;;;;;;8.40;3.60;;;;;;;;;;5068859;28;20127;-63
2021/10/27 16:46:19;;;;;;;5.55;3.08;;;;;;;;;;5062645;28;20080;-61
2021/10/27 16:48:45;;;;;;;7.53;2.85;;;;;;;;;;5077269;28;20032;-61
2021/10/27 16:51:12;;;;;;;5.38;2.55;;;;;;;;;;5071743;28;20165;-61
2021/10/27 16:53:38;;;;;;;9.20;3.42;;;;;;;;;;5067106;28;20500;-61
2021/10/27 16:56:04;;;;;;;9.30;3.05;;;;;;;;;;5071990;28;20136;-61
2021/10/27 16:58:31;;;;;;;12.05;3.03;;;;;;;;;;5071683;28;20212;-63
2021/10/27 17:00:57;;;;;;;11.50;2.90;;;;;;;;;;5065887;28;20044;-62
2021/10/27 17:03:23;;;;;;;11.48;3.65;;;;;;;;;;5076341;28;20076;-61
2021/10/27 17:05:49;;;;;;;10.23;3.33;;;;;;;;;;5077210;28;20041;-61
2021/10/27 17:08:16;;;;;;;9.70;3.83;;;;;;;;;;5063830;28;20056;-61
2021/10/27 17:10:43;;;;;;;10.40;3.80;;;;;;;;;;5062858;28;20037;-61
2021/10/27 17:13:10;;;;;;;6.25;2.78;;;;;;;;;;5063327;28;20535;-61
2021/10/27 17:15:36;;;;;;;6.97;3.38;;;;;;;;;;5070371;28;20128;-61
2021/10/27 17:18:02;;;;;;;9.85;3.65;;;;;;;;;;5067037;28;20052;-61
2021/10/27 17:20:28;;;;;;;12.77;3.42;;;;;;;;;;5070310;28;20046;-61
2021/10/27 17:23:01;;;;;;;9.57;3.63;;;;;;;;;;5070489;28;20115;-61
2021/10/27 17:25:28;;;;;;;8.18;3.40;;;;;;;;;;5072410;28;20361;-61
2021/10/27 17:27:54;;;;;;;10.57;3.65;;;;;;;;;;5078429;28;20583;-61
2021/10/27 17:30:21;;;;;;;7.13;4.60;;;;;;;;;;5070899;28;20044;-61
2021/10/27 17:32:48;;;;;;;8.85;3.60;;;;;;;;;;5071099;28;20057;-62
2021/10/27 17:35:16;;;;;;;10.93;3.67;;;;;;;;;;5071816;28;20048;-62
2021/10/27 17:37:43;;;;;;;10.00;3.75;;;;;;;;;;5063678;28;20032;-63
2021/10/27 17:40:17;;;;;;;9.10;3.70;;;;;;;;;;5070913;28;20040;-61
2021/10/27 17:42:46;;;;;;;10.25;3.88;;;;;;;;;;5069566;28;20048;-61
2021/10/27 17:45:14;;;;;;;9.00;4.22;;;;;;;;;;5072144;28;20044;-64
2021/10/27 17:47:45;;;;;;;10.85;4.57;;;;;;;;;;5072532;28;20048;-62
2021/10/27 17:50:34;;;;;;;9.35;4.18;;;;;;;;;;5081308;28;20045;-63
2021/10/27 17:58:37;;;;;;;8.00;4.93;;;;;;;;;;5075843;28;20338;-62
2021/10/27 18:01:05;;;;;;;12.68;6.28;;;;;;;;;;5072708;28;20052;-63
2021/10/27 18:03:32;;;;;;;13.93;5.63;;;;;;;;;;5075321;28;20104;-62
2021/10/27 18:06:04;;;;;;;9.30;5.25;;;;;;;;;;5075693;28;20117;-63
2021/10/27 18:08:31;;;;;;;9.88;5.50;;;;;;;;;;5073294;28;20115;-62
2021/10/27 18:11:00;;;;;;;15.23;6.25;;;;;;;;;;5070545;28;20101;-62
2021/10/27 18:13:33;;;;;;;8.00;5.82;;;;;;;;;;5085262;28;20064;-62
2021/10/27 18:16:06;;;;;;;7.38;5.25;;;;;;;;;;5073967;28;20098;-62
2021/10/27 18:18:40;;;;;;;11.52;6.10;;;;;;;;;;5086209;28;20048;-62
2021/10/27 18:21:13;;;;;;;8.98;5.57;;;;;;;;;;5071987;28;20056;-62
2021/10/27 18:42:23;;;;;;;10.50;7.15;;;;;;;;;;5063340;28;20087;-62
2021/10/27 18:44:49;;;;;;;16.08;7.20;;;;;;;;;;5062471;28;20702;-62
2021/10/27 18:47:16;;;;;;;13.00;8.25;;;;;;;;;;5059634;28;20176;-63
2021/10/27 18:49:43;;;;;;;10.77;7.30;;;;;;;;;;5059882;28;20324;-62
2021/10/27 18:52:27;;;;;;;11.52;7.55;;;;;;;;;;5062119;28;20528;-62
2021/10/27 18:54:59;;;;;;;14.90;10.27;;;;;;;;;;5061480;28;20091;-62
2021/10/27 19:00:15;;;;;;;13.52;8.57;;;;;;;;;;5059036;28;20051;-62
2021/10/27 19:13:54;;;;;;;14.98;9.40;;;;;;;;;;5073849;28;20089;-62
2021/10/27 19:16:07;;;;;;;;;;;;;;;;;;5074745;28;20052;-62
2021/10/27 19:18:34;;;;;;;13.43;10.60;;;;;;;;;;5068054;28;20007;-62
2021/10/27 19:21:00;;;;;;;19.70;11.50;;;;;;;;;;5073818;28;20072;-62
2021/10/27 19:23:26;;;;;;;14.15;11.38;;;;;;;;;;5080086;28;20400;-62
2021/10/27 20:06:49;;;;;;;17.55;13.57;;;;;;;;;;5073633;28;20051;-62
2021/10/27 20:09:25;;;;;;;26.27;15.52;;;;;;;;;;5068775;28;20052;-62
2021/10/27 20:20:22;;;;;;;24.45;16.23;;;;;;;;;;5075474;28;20385;-62
2021/10/27 20:50:59;;;;;;;31.58;20.52;;;;;;;;;;5068653;28;20125;-62
2021/10/27 20:53:05;;;;;;;29.10;19.73;;;;;;;;;;5073265;28;20036;-62
2021/10/27 20:55:27;;;;;;;29.15;19.60;;;;;;;;;;5074375;28;20059;-62